createdAt,value
2022-11-18T00:01:11.400Z,2.97
2022-11-18T00:03:38.816Z,3.35
2022-11-18T00:06:06.516Z,2.95
2022-11-18T00:08:34.068Z,3.10
2022-11-18T00:11:06.289Z,3.10
2022-11-18T00:13:51.086Z,3.47
2022-11-18T00:16:17.668Z,4.10
2022-11-18T00:18:44.211Z,3.30
2022-11-18T00:21:12.142Z,2.60
2022-11-18T00:23:39.681Z,2.60
2022-11-18T00:26:11.124Z,2.72
2022-11-18T00:28:37.871Z,2.67
2022-11-18T00:31:06.514Z,3.33
2022-11-18T00:33:32.968Z,2.55
2022-11-18T00:35:59.782Z,2.30
2022-11-18T00:38:26.823Z,2.70
2022-11-18T00:41:06.093Z,2.78
2022-11-18T00:43:33.291Z,2.72
2022-11-18T00:45:59.785Z,2.70
2022-11-18T00:48:26.326Z,2.78
2022-11-18T00:51:06.610Z,2.63
2022-11-18T00:53:32.971Z,3.00
2022-11-18T00:55:59.441Z,2.95
2022-11-18T00:58:26.088Z,2.95
2022-11-18T01:00:53.167Z,3.22
2022-11-18T01:03:20.483Z,3.22
2022-11-18T01:05:47.646Z,2.97
2022-11-18T01:08:14.793Z,3.65
2022-11-18T01:10:41.653Z,3.65
2022-11-18T01:13:19.444Z,3.28
2022-11-18T01:15:57.447Z,3.63
2022-11-18T01:18:30.492Z,3.50
2022-11-18T01:21:01.474Z,3.00
2022-11-18T01:23:27.890Z,3.58
2022-11-18T01:25:54.299Z,2.75
2022-11-18T01:28:23.955Z,3.30
2022-11-18T01:30:51.116Z,2.97
2022-11-18T01:33:17.540Z,2.70
2022-11-18T01:35:44.284Z,2.47
2022-11-18T01:38:12.159Z,3.10
2022-11-18T01:40:40.325Z,2.80
2022-11-18T01:43:13.841Z,2.92
2022-11-18T01:45:42.147Z,2.97
2022-11-18T01:48:23.087Z,3.50
2022-11-18T01:50:54.244Z,3.20
2022-11-18T01:53:25.537Z,3.03
2022-11-18T01:55:55.998Z,3.08
2022-11-18T01:58:27.360Z,2.78
2022-11-18T02:00:54.546Z,2.33
2022-11-18T02:03:22.080Z,2.63
2022-11-18T02:05:50.388Z,2.10
2022-11-18T02:08:18.936Z,2.67
2022-11-18T02:10:45.320Z,2.60
2022-11-18T02:13:13.166Z,2.13
2022-11-18T02:15:55.604Z,2.63
2022-11-18T02:18:40.959Z,2.75
2022-11-18T02:21:25.503Z,2.50
2022-11-18T02:24:09.653Z,2.50
2022-11-18T02:26:54.386Z,2.88
2022-11-18T02:29:32.181Z,2.63
2022-11-18T02:32:01.824Z,2.70
2022-11-18T02:34:28.123Z,2.45
2022-11-18T02:37:02.559Z,2.65
2022-11-18T02:39:39.347Z,2.70
2022-11-18T02:42:11.261Z,2.85
2022-11-18T02:44:40.775Z,2.83
2022-11-18T02:47:11.374Z,2.92
2022-11-18T02:49:53.873Z,3.15
2022-11-18T02:52:22.184Z,2.70
2022-11-18T02:54:51.121Z,2.80
2022-11-18T02:57:19.941Z,3.05
2022-11-18T02:59:46.303Z,2.80
2022-11-18T03:02:17.315Z,2.63
2022-11-18T03:04:46.422Z,2.70
2022-11-18T03:07:29.540Z,2.72
2022-11-18T03:09:57.865Z,2.47
2022-11-18T03:12:43.715Z,2.58
2022-11-18T03:15:26.007Z,2.28
2022-11-18T03:18:20.030Z,2.45
2022-11-18T03:21:01.223Z,2.47
2022-11-18T03:23:43.099Z,2.95
2022-11-18T03:26:14.110Z,3.30
2022-11-18T03:28:43.896Z,3.00
2022-11-18T03:31:21.875Z,3.90
2022-11-18T03:34:00.095Z,3.15
2022-11-18T03:36:32.633Z,3.75
2022-11-18T03:39:01.334Z,3.05
2022-11-18T03:41:31.914Z,3.45
2022-11-18T03:44:24.923Z,3.22
2022-11-18T03:47:02.958Z,3.42
2022-11-18T03:49:40.564Z,3.30
2022-11-18T03:52:21.344Z,3.67
2022-11-18T03:54:51.782Z,3.42
2022-11-18T03:57:33.468Z,3.10
2022-11-18T04:00:05.727Z,3.25
2022-11-18T04:02:32.337Z,2.50
2022-11-18T04:05:00.602Z,3.10
2022-11-18T04:07:35.648Z,3.40
2022-11-18T04:10:11.782Z,3.10
2022-11-18T04:12:43.666Z,3.28
2022-11-18T04:15:10.027Z,3.53
2022-11-18T04:17:36.837Z,2.53
2022-11-18T04:20:03.639Z,2.97
2022-11-18T04:22:30.131Z,2.75
2022-11-18T04:24:56.437Z,2.83
2022-11-18T04:27:22.735Z,2.80
2022-11-18T04:29:49.238Z,2.47
2022-11-18T04:32:15.730Z,2.40
2022-11-18T04:34:42.035Z,3.10
2022-11-18T04:37:08.531Z,2.53
2022-11-18T04:39:34.833Z,2.50
2022-11-18T04:42:01.374Z,2.72
2022-11-18T04:44:33.082Z,2.60
2022-11-18T04:47:01.618Z,2.55
2022-11-18T04:51:56.059Z,2.83
2022-11-18T04:54:22.918Z,2.92
2022-11-18T04:56:50.140Z,2.25
2022-11-18T04:59:22.645Z,3.08
2022-11-18T05:01:49.975Z,2.90
2022-11-18T05:04:25.073Z,3.08
2022-11-18T05:06:52.307Z,3.08
2022-11-18T05:09:19.845Z,2.60
2022-11-18T05:12:05.060Z,3.63
2022-11-18T05:14:31.788Z,2.90
2022-11-18T05:17:00.005Z,2.30
2022-11-18T05:19:26.675Z,2.85
2022-11-18T05:21:53.774Z,2.58
2022-11-18T05:24:20.477Z,2.33
2022-11-18T05:26:46.807Z,3.13
2022-11-18T05:29:13.173Z,2.65
2022-11-18T05:31:39.661Z,2.40
2022-11-18T05:34:06.092Z,2.70
2022-11-18T05:36:32.463Z,2.80
2022-11-18T05:38:59.926Z,3.33
2022-11-18T05:41:45.075Z,3.83
2022-11-18T05:44:11.390Z,3.58
2022-11-18T05:46:37.951Z,3.80
2022-11-18T05:49:04.362Z,3.65
2022-11-18T05:51:30.733Z,3.72
2022-11-18T05:53:57.461Z,3.08
2022-11-18T05:56:37.092Z,3.30
2022-11-18T05:59:03.976Z,3.67
2022-11-18T06:01:43.955Z,2.85
2022-11-18T06:04:20.094Z,3.20
2022-11-18T06:06:49.189Z,3.33
2022-11-18T06:09:20.778Z,2.90
2022-11-18T06:11:53.063Z,3.22
2022-11-18T06:14:33.675Z,2.97
2022-11-18T06:17:06.220Z,2.30
2022-11-18T06:19:33.174Z,3.10
2022-11-18T06:22:00.061Z,3.10
2022-11-18T06:24:26.838Z,2.97
2022-11-18T06:26:53.781Z,4.07
2022-11-18T06:29:26.177Z,2.80
2022-11-18T06:31:53.946Z,3.67
2022-11-18T06:34:20.237Z,3.58
2022-11-18T06:36:46.566Z,3.22
2022-11-18T06:39:12.921Z,3.25
2022-11-18T06:41:39.225Z,3.42
2022-11-18T06:44:05.578Z,3.05
2022-11-18T06:46:51.768Z,2.38
2022-11-18T06:49:18.317Z,3.08
2022-11-18T06:51:44.829Z,3.30
2022-11-18T06:54:11.421Z,3.28
2022-11-18T06:56:38.021Z,4.50
2022-11-18T06:59:04.932Z,3.72
2022-11-18T07:01:34.912Z,3.78
2022-11-18T07:04:01.909Z,6.15
2022-11-18T07:06:30.953Z,5.63
2022-11-18T07:08:59.484Z,4.60
2022-11-18T07:13:53.075Z,3.75
2022-11-18T07:16:24.894Z,3.35
2022-11-18T07:18:52.618Z,4.28
2022-11-18T07:21:23.345Z,6.38
2022-11-18T07:23:49.661Z,5.53
2022-11-18T07:26:16.553Z,5.03
2022-11-18T07:28:43.189Z,3.83
2022-11-18T07:31:12.499Z,3.60
2022-11-18T07:33:40.655Z,3.50
2022-11-18T07:36:21.429Z,3.63
2022-11-18T07:38:48.079Z,3.15
2022-11-18T07:41:23.554Z,3.22
2022-11-18T07:43:54.958Z,3.28
2022-11-18T07:46:27.702Z,3.60
2022-11-18T07:48:56.069Z,3.22
2022-11-18T07:51:28.071Z,3.55
2022-11-18T07:53:54.613Z,3.10
2022-11-18T07:56:21.280Z,3.47
2022-11-18T07:58:48.086Z,3.10
2022-11-18T08:01:20.609Z,3.90
2022-11-18T08:03:47.657Z,3.53
2022-11-18T08:06:16.564Z,3.60
2022-11-18T08:08:43.335Z,3.55
2022-11-18T08:11:16.296Z,3.58
2022-11-18T08:13:47.357Z,3.63
2022-11-18T08:16:16.638Z,3.70
2022-11-18T08:18:43.015Z,3.42
2022-11-18T08:21:10.263Z,3.78
2022-11-18T08:23:41.673Z,3.38
2022-11-18T08:26:11.871Z,3.60
2022-11-18T08:28:38.568Z,3.78
2022-11-18T08:31:16.086Z,3.83
2022-11-18T08:33:42.714Z,4.57
2022-11-18T08:36:25.269Z,4.40
2022-11-18T08:38:51.678Z,4.65
2022-11-18T08:41:38.727Z,4.80
2022-11-18T08:44:07.048Z,5.07
2022-11-18T08:46:33.850Z,4.47
2022-11-18T08:49:00.224Z,5.10
2022-11-18T08:51:28.455Z,5.07
2022-11-18T08:53:55.174Z,5.05
2022-11-18T08:56:23.528Z,5.10
2022-11-18T08:58:50.373Z,5.00
2022-11-18T09:01:17.043Z,4.45
2022-11-18T09:03:43.925Z,4.72
2022-11-18T09:06:19.041Z,5.45
2022-11-18T09:08:46.104Z,5.03
2022-11-18T09:11:23.950Z,5.03
2022-11-18T09:16:46.807Z,5.43
2022-11-18T09:22:02.054Z,4.72
2022-11-18T09:24:28.664Z,4.80
2022-11-18T09:26:55.260Z,4.90
2022-11-18T09:29:26.250Z,4.18
2022-11-18T09:31:53.788Z,4.18
2022-11-18T09:34:20.721Z,4.80
2022-11-18T09:36:47.086Z,4.72
2022-11-18T09:39:13.647Z,4.75
2022-11-18T09:41:53.084Z,4.60
2022-11-18T09:44:48.628Z,4.25
2022-11-18T09:47:27.840Z,4.35
2022-11-18T09:49:57.030Z,4.78
2022-11-18T09:52:36.169Z,4.65
2022-11-18T09:55:11.892Z,4.85
2022-11-18T09:57:43.575Z,4.80
2022-11-18T10:00:22.390Z,5.57
2022-11-18T10:02:57.598Z,5.00
2022-11-18T10:05:27.698Z,5.72
2022-11-18T10:08:09.637Z,5.60
2022-11-18T10:10:48.484Z,5.28
2022-11-18T10:13:26.556Z,5.55
2022-11-18T10:16:05.051Z,5.30
2022-11-18T10:21:55.333Z,5.20
2022-11-18T10:24:25.159Z,6.03
2022-11-18T10:26:57.041Z,6.30
2022-11-18T10:29:24.110Z,6.28
2022-11-18T10:32:11.850Z,5.70
2022-11-18T10:34:51.607Z,5.43
2022-11-18T10:38:06.210Z,5.40
2022-11-18T10:40:26.238Z,5.30
2022-11-18T10:42:52.625Z,5.60
2022-11-18T10:45:32.496Z,5.45
2022-11-18T10:48:27.958Z,6.45
2022-11-18T10:50:56.059Z,5.75
2022-11-18T10:53:33.327Z,7.28
2022-11-18T10:56:15.964Z,5.85
2022-11-18T10:58:46.464Z,5.63
2022-11-18T11:01:16.019Z,5.32
2022-11-18T11:03:44.172Z,5.05
2022-11-18T11:06:26.802Z,5.20
2022-11-18T11:08:56.329Z,5.28
2022-11-18T11:11:30.526Z,6.13
2022-11-18T11:14:15.708Z,5.65
2022-11-18T11:16:51.738Z,6.07
2022-11-18T11:19:22.907Z,6.07
2022-11-18T11:21:49.226Z,5.53
2022-11-18T11:24:15.944Z,5.35
2022-11-18T11:30:06.923Z,5.22
2022-11-18T11:32:39.105Z,5.25
2022-11-18T11:35:30.977Z,6.22
2022-11-18T11:38:31.252Z,5.25
2022-11-18T11:41:22.195Z,5.70
2022-11-18T11:44:07.228Z,5.70
2022-11-18T11:47:10.168Z,5.80
2022-11-18T11:49:45.791Z,5.43
2022-11-18T11:52:21.167Z,5.22
2022-11-18T11:55:04.602Z,5.78
2022-11-18T11:57:51.325Z,5.97
2022-11-18T12:00:19.907Z,5.00
2022-11-18T12:05:36.510Z,6.53
2022-11-18T12:08:24.285Z,6.53
2022-11-18T12:10:59.810Z,5.85
2022-11-18T12:13:48.326Z,7.25
2022-11-18T12:16:33.773Z,5.82
2022-11-18T12:19:07.686Z,6.07
2022-11-18T12:21:46.146Z,6.45
2022-11-18T12:27:06.734Z,6.25
2022-11-18T12:29:36.281Z,6.35
2022-11-18T12:32:04.112Z,6.15
2022-11-18T12:34:42.543Z,7.03
2022-11-18T12:37:24.239Z,6.97
2022-11-18T12:39:57.293Z,7.35
2022-11-18T12:43:01.944Z,6.97
2022-11-18T12:45:51.953Z,6.88
2022-11-18T12:48:27.846Z,7.15
2022-11-18T12:51:18.705Z,6.97
2022-11-18T12:53:47.594Z,6.35
2022-11-18T12:56:26.373Z,6.45
2022-11-18T12:59:02.308Z,7.70
2022-11-18T13:01:35.388Z,5.75
2022-11-18T13:04:17.496Z,7.28
2022-11-18T13:06:44.814Z,5.55
2022-11-18T13:09:18.933Z,6.38
2022-11-18T13:11:59.088Z,6.03
2022-11-18T13:14:54.948Z,7.63
2022-11-18T13:17:54.366Z,7.60
2022-11-18T13:20:23.506Z,7.00
2022-11-18T13:23:20.228Z,8.20
2022-11-18T13:25:48.829Z,9.80
2022-11-18T13:28:24.977Z,9.82
2022-11-18T13:31:00.060Z,10.95
2022-11-18T13:33:26.512Z,11.52
2022-11-18T13:35:52.963Z,11.85
2022-11-18T13:38:27.669Z,13.30
2022-11-18T13:41:13.884Z,13.27
2022-11-18T13:43:42.360Z,13.57
2022-11-18T13:46:17.590Z,13.75
2022-11-18T13:48:52.078Z,13.55
2022-11-18T13:51:18.636Z,13.60
2022-11-18T13:53:45.441Z,13.38
2022-11-18T13:56:30.288Z,12.40
2022-11-18T13:59:17.427Z,13.15
2022-11-18T14:01:46.231Z,12.82
2022-11-18T14:04:32.061Z,13.80
2022-11-18T14:07:27.840Z,14.27
2022-11-18T14:10:01.988Z,14.80
2022-11-18T14:12:35.954Z,15.82
2022-11-18T14:15:20.909Z,14.95
2022-11-18T14:17:56.200Z,14.80
2022-11-18T14:20:24.745Z,16.20
2022-11-18T14:25:26.196Z,14.55
2022-11-18T14:27:55.928Z,16.00
2022-11-18T14:30:37.826Z,16.73
2022-11-18T14:33:24.202Z,17.33
2022-11-18T14:35:55.572Z,17.48
2022-11-18T14:41:47.140Z,18.60
2022-11-18T14:46:43.473Z,18.40
2022-11-18T14:49:20.008Z,19.63
2022-11-18T14:51:46.827Z,20.75
2022-11-18T14:54:25.221Z,20.60
2022-11-18T14:56:58.289Z,19.42
2022-11-18T14:59:24.759Z,19.70
2022-11-18T15:01:51.528Z,19.52
2022-11-18T15:04:19.165Z,20.55
2022-11-18T15:06:46.808Z,21.25
2022-11-18T15:09:13.569Z,21.38
2022-11-18T15:11:40.224Z,22.63
2022-11-18T15:14:06.687Z,21.95
2022-11-18T15:16:34.407Z,22.27
2022-11-18T15:19:03.377Z,21.43
2022-11-18T15:21:29.974Z,21.48
2022-11-18T15:23:56.417Z,20.90
2022-11-18T15:26:25.797Z,21.25
2022-11-18T15:28:54.590Z,22.25
2022-11-18T15:31:22.732Z,20.52
2022-11-18T15:33:51.180Z,22.60
2022-11-18T15:36:20.131Z,20.95
2022-11-18T15:38:47.492Z,21.20
2022-11-18T15:41:25.336Z,20.88
2022-11-18T15:43:53.619Z,20.52
2022-11-18T15:46:22.052Z,21.67
2022-11-18T15:48:52.043Z,22.73
2022-11-18T15:51:19.104Z,22.10
2022-11-18T15:53:46.998Z,21.52
2022-11-18T15:56:20.518Z,21.88
2022-11-18T15:59:01.978Z,20.63
2022-11-18T16:01:35.190Z,21.27
2022-11-18T16:04:02.482Z,21.88
2022-11-18T16:06:28.983Z,22.75
2022-11-18T16:08:59.540Z,23.88
2022-11-18T16:11:45.858Z,22.17
2022-11-18T16:14:13.862Z,21.92
2022-11-18T16:16:42.313Z,22.70
2022-11-18T16:19:14.626Z,22.05
2022-11-18T16:21:46.834Z,21.08
2022-11-18T16:24:17.064Z,20.20
2022-11-18T16:26:46.708Z,18.27
2022-11-18T16:29:16.404Z,18.05
2022-11-18T16:31:50.906Z,16.15
2022-11-18T16:34:23.214Z,16.73
2022-11-18T16:36:52.721Z,14.07
2022-11-18T16:39:27.684Z,13.63
2022-11-18T16:42:02.260Z,11.00
2022-11-18T16:44:33.841Z,10.75
2022-11-18T16:47:06.519Z,10.00
2022-11-18T16:49:37.112Z,10.68
2022-11-18T16:52:03.706Z,10.60
2022-11-18T16:54:31.905Z,10.15
2022-11-18T16:56:59.222Z,11.18
2022-11-18T16:59:29.061Z,11.27
2022-11-18T17:01:57.609Z,14.30
2022-11-18T17:06:53.546Z,13.88
2022-11-18T17:09:23.076Z,12.77
2022-11-18T17:11:53.274Z,13.40
2022-11-18T17:14:20.292Z,16.35
2022-11-18T17:16:46.979Z,13.57
2022-11-18T17:19:15.967Z,11.20
2022-11-18T17:21:43.907Z,9.63
2022-11-18T17:24:13.030Z,9.45
2022-11-18T17:26:39.439Z,8.93
2022-11-18T17:29:06.233Z,9.07
2022-11-18T17:31:33.456Z,12.13
2022-11-18T17:34:04.205Z,14.75
2022-11-18T17:36:30.722Z,14.60
2022-11-18T17:38:59.419Z,12.85
2022-11-18T17:41:46.762Z,12.48
2022-11-18T17:44:15.969Z,13.77
2022-11-18T17:46:43.334Z,13.02
2022-11-18T17:49:16.423Z,13.23
2022-11-18T17:51:42.878Z,13.07
2022-11-18T17:54:09.842Z,12.05
2022-11-18T17:56:36.459Z,11.80
2022-11-18T17:59:03.025Z,11.82
2022-11-18T18:01:29.727Z,12.98
2022-11-18T18:03:56.229Z,12.55
2022-11-18T18:06:25.587Z,12.38
2022-11-18T18:08:56.403Z,12.23
2022-11-18T18:11:23.423Z,10.77
2022-11-18T18:14:08.478Z,9.82
2022-11-18T18:16:35.047Z,9.60
2022-11-18T18:19:03.215Z,9.40
2022-11-18T18:21:29.788Z,8.65
2022-11-18T18:23:56.470Z,10.00
2022-11-18T18:26:29.733Z,9.57
2022-11-18T18:28:58.725Z,9.82
2022-11-18T18:31:25.371Z,9.82
2022-11-18T18:33:51.708Z,9.30
2022-11-18T18:36:18.686Z,9.07
2022-11-18T18:38:46.245Z,9.48
2022-11-18T18:41:16.743Z,9.57
2022-11-18T18:43:43.530Z,9.23
2022-11-18T18:46:34.100Z,10.65
2022-11-18T18:49:08.872Z,9.63
2022-11-18T18:51:37.507Z,9.00
2022-11-18T18:56:31.442Z,7.65
2022-11-18T18:58:58.127Z,7.78
2022-11-18T19:01:25.653Z,6.72
2022-11-18T19:03:57.524Z,7.00
2022-11-18T19:09:17.337Z,5.95
2022-11-18T19:12:03.236Z,6.25
2022-11-18T19:14:29.678Z,6.22
2022-11-18T19:17:02.266Z,5.90
2022-11-18T19:19:50.319Z,6.05
2022-11-18T19:22:19.363Z,6.32
2022-11-18T19:24:50.606Z,6.25
2022-11-18T19:27:19.570Z,5.88
2022-11-18T19:32:12.659Z,5.40
2022-11-18T19:34:39.271Z,4.95
2022-11-18T19:37:05.588Z,4.32
2022-11-18T19:39:33.396Z,4.97
2022-11-18T19:41:59.931Z,5.03
2022-11-18T19:44:26.653Z,5.30
2022-11-18T19:46:53.078Z,4.30
2022-11-18T19:49:19.860Z,4.63
2022-11-18T19:51:46.404Z,4.55
2022-11-18T19:54:12.916Z,4.05
2022-11-18T19:56:39.243Z,4.78
2022-11-18T19:59:08.428Z,4.30
2022-11-18T20:01:36.557Z,4.47
2022-11-18T20:04:03.098Z,3.92
2022-11-18T20:06:30.015Z,3.75
2022-11-18T20:08:57.604Z,3.55
2022-11-18T20:11:24.608Z,3.90
2022-11-18T20:13:51.422Z,3.75
2022-11-18T20:16:20.782Z,3.80
2022-11-18T20:18:48.788Z,3.63
2022-11-18T20:21:19.882Z,3.30
2022-11-18T20:23:47.909Z,3.22
2022-11-18T20:26:16.905Z,3.22
2022-11-18T20:28:44.516Z,3.67
2022-11-18T20:31:15.588Z,3.40
2022-11-18T20:33:47.152Z,2.78
2022-11-18T20:36:15.506Z,2.90
2022-11-18T20:38:42.383Z,3.08
2022-11-18T20:41:11.367Z,3.00
2022-11-18T20:43:40.508Z,3.08
2022-11-18T20:46:08.358Z,2.67
2022-11-18T20:48:35.590Z,3.00
2022-11-18T20:51:16.630Z,3.08
2022-11-18T20:53:43.888Z,2.70
2022-11-18T20:56:13.382Z,2.50
2022-11-18T20:58:40.288Z,2.97
2022-11-18T21:01:14.590Z,2.50
2022-11-18T21:03:43.557Z,2.63
2022-11-18T21:06:14.629Z,2.25
2022-11-18T21:08:43.699Z,3.30
2022-11-18T21:11:12.485Z,2.72
2022-11-18T21:13:58.571Z,2.40
2022-11-18T21:16:26.105Z,2.20
2022-11-18T21:18:52.552Z,2.25
2022-11-18T21:21:37.582Z,2.42
2022-11-18T21:24:04.661Z,2.22
2022-11-18T21:26:33.122Z,2.42
2022-11-18T21:31:28.998Z,2.17
2022-11-18T21:33:57.453Z,2.38
2022-11-18T21:36:25.931Z,2.42
2022-11-18T21:41:19.737Z,2.15
2022-11-18T21:46:34.758Z,2.40
2022-11-18T21:49:02.050Z,2.20
2022-11-18T21:51:28.691Z,2.38
2022-11-18T21:53:55.217Z,2.42
2022-11-18T21:56:25.125Z,2.30
2022-11-18T21:58:52.566Z,2.38
2022-11-18T22:01:21.868Z,2.05
2022-11-18T22:03:55.524Z,3.10
2022-11-18T22:06:24.454Z,2.10
2022-11-18T22:08:52.143Z,2.60
2022-11-18T22:11:20.348Z,2.33
2022-11-18T22:13:47.167Z,2.42
2022-11-18T22:16:18.163Z,2.38
2022-11-18T22:18:53.058Z,2.40
2022-11-18T22:21:23.226Z,2.17
2022-11-18T22:23:49.774Z,3.17
2022-11-18T22:26:19.319Z,2.50
2022-11-18T22:28:46.352Z,2.70
2022-11-18T22:31:15.331Z,2.47
2022-11-18T22:33:42.915Z,3.03
2022-11-18T22:36:13.554Z,4.07
2022-11-18T22:38:41.812Z,3.08
2022-11-18T22:41:30.996Z,3.50
2022-11-18T22:44:00.384Z,3.95
2022-11-18T22:46:30.984Z,4.18
2022-11-18T22:48:58.240Z,4.00
2022-11-18T22:51:25.768Z,4.60
2022-11-18T22:54:09.720Z,5.20
2022-11-18T22:56:40.411Z,4.68
2022-11-18T22:59:06.789Z,6.07
2022-11-18T23:01:33.176Z,5.25
2022-11-18T23:03:59.837Z,5.47
2022-11-18T23:06:26.225Z,5.40
2022-11-18T23:08:52.755Z,5.80
2022-11-18T23:11:38.331Z,6.25
2022-11-18T23:14:07.407Z,6.35
2022-11-18T23:16:36.704Z,6.97
2022-11-18T23:19:05.686Z,7.90
2022-11-18T23:21:32.070Z,6.53
2022-11-18T23:23:58.493Z,6.63
2022-11-18T23:26:25.798Z,6.75
2022-11-18T23:28:53.030Z,7.07
2022-11-18T23:31:21.154Z,7.45
2022-11-18T23:33:47.991Z,7.22
2022-11-18T23:36:16.926Z,7.03
2022-11-18T23:38:43.594Z,7.57
2022-11-18T23:41:12.680Z,7.22
2022-11-18T23:43:39.990Z,7.47
2022-11-18T23:46:07.823Z,8.10
2022-11-18T23:48:36.497Z,7.55
2022-11-18T23:51:12.316Z,8.13
2022-11-18T23:53:39.662Z,8.32
2022-11-18T23:56:12.060Z,8.25
2022-11-18T23:58:42.132Z,8.68
